Time;durP1;ratioP1;P1;durP2;ratioP2;P2;SDS_P1;SDS_P2;PMS_P1;PMS_P2;Temp;Humidity;BMP_temperature;BMP_pressure;BME280_temperature;BME280_humidity;BME280_pressure;Samples;Min_cycle;Max_cycle;Signal;HPM_P1;HPM_P2
2021/04/09 00:02:14;;;;;;;26.15;7.65;;;;;;;16.00;56.11;100378.31;4990926;28;20101;-65
2021/04/09 00:04:41;;;;;;;22.73;6.10;;;;;;;16.19;55.62;100390.22;4992367;28;20054;-67
2021/04/09 00:07:08;;;;;;;21.30;6.20;;;;;;;16.16;55.57;100373.94;4987343;28;20403;-69
2021/04/09 00:09:35;;;;;;;20.53;6.63;;;;;;;16.19;55.70;100378.94;4988777;28;20038;-76
2021/04/09 00:12:01;;;;;;;21.87;6.93;;;;;;;16.11;55.61;100368.47;4990267;28;20048;-74
2021/04/09 00:14:28;;;;;;;23.70;7.07;;;;;;;16.22;55.56;100377.47;4988041;28;20117;-75
2021/04/09 00:16:54;;;;;;;30.80;7.53;;;;;;;16.32;55.48;100382.84;4991166;28;20042;-72
2021/04/09 00:19:24;;;;;;;18.43;6.23;;;;;;;16.30;55.26;100369.06;4987725;28;20188;-73
2021/04/09 00:21:52;;;;;;;24.20;7.33;;;;;;;16.21;55.63;100362.56;4989522;28;20117;-70
2021/04/09 00:24:18;;;;;;;28.60;7.80;;;;;;;16.26;55.65;100376.50;4989025;28;20061;-79
2021/04/09 00:26:45;;;;;;;22.87;6.43;;;;;;;16.23;55.67;100374.31;4988526;28;20052;-74
2021/04/09 00:29:11;;;;;;;18.33;6.23;;;;;;;16.15;55.71;100358.22;4986959;28;20049;-68
2021/04/09 00:31:37;;;;;;;27.17;6.63;;;;;;;16.18;55.72;100374.47;4987006;28;20407;-67
2021/04/09 00:34:07;;;;;;;23.40;8.83;;;;;;;16.18;55.55;100363.22;4989804;28;20053;-69
2021/04/09 00:36:35;;;;;;;22.02;6.82;;;;;;;16.15;55.67;100360.22;4992373;28;20054;-69
2021/04/09 00:39:04;;;;;;;24.10;7.93;;;;;;;16.00;55.81;100341.72;4991202;28;20046;-66
2021/04/09 00:41:30;;;;;;;27.63;9.00;;;;;;;16.12;55.64;100372.94;4984017;28;20042;-66
2021/04/09 00:43:56;;;;;;;17.00;6.97;;;;;;;15.98;55.48;100341.22;4990157;28;20046;-69
2021/04/09 00:46:23;;;;;;;24.93;8.00;;;;;;;16.18;55.31;100353.94;4991013;28;20046;-74
2021/04/09 00:48:50;;;;;;;33.00;7.60;;;;;;;16.14;55.58;100366.97;4988185;28;20058;-74
2021/04/09 00:51:20;;;;;;;25.00;6.77;;;;;;;16.19;55.13;100356.41;4986216;28;20046;-73
2021/04/09 00:53:47;;;;;;;22.48;6.38;;;;;;;16.14;54.97;100336.84;4982707;28;20046;-73
2021/04/09 00:56:18;;;;;;;27.07;8.30;;;;;;;16.30;54.75;100354.13;4991623;28;20058;-71
2021/04/09 00:58:45;;;;;;;24.90;6.83;;;;;;;16.26;54.67;100342.69;4988322;28;20948;-69
2021/04/09 01:01:12;;;;;;;16.53;7.37;;;;;;;16.37;54.52;100348.03;4989691;28;20056;-71
2021/04/09 01:03:39;;;;;;;17.33;4.83;;;;;;;16.29;54.70;100353.31;4989227;28;20551;-71
2021/04/09 01:06:06;;;;;;;18.03;6.77;;;;;;;16.10;55.10;100355.50;4981932;28;20047;-69
2021/04/09 01:08:35;;;;;;;16.40;6.53;;;;;;;15.97;55.03;100336.75;4988259;28;20049;-70
2021/04/09 01:11:02;;;;;;;23.30;6.80;;;;;;;16.03;55.21;100360.78;4986908;28;20499;-71
2021/04/09 01:13:28;;;;;;;17.27;6.97;;;;;;;15.91;55.47;100346.47;4989589;28;20046;-72
2021/04/09 01:15:55;;;;;;;23.07;6.43;;;;;;;15.99;55.31;100354.13;4988665;28;20217;-74
2021/04/09 01:18:48;;;;;;;20.60;5.83;;;;;;;15.97;55.35;100348.00;4987365;28;20403;-76
2021/04/09 01:21:28;;;;;;;21.70;6.17;;;;;;;15.87;55.69;100344.28;4986612;28;20117;-75
2021/04/09 01:24:08;;;;;;;14.98;6.50;;;;;;;15.80;55.69;100341.09;4983359;28;20050;-69
2021/04/09 01:26:53;;;;;;;;;;;;;;;15.82;55.50;100338.78;4988816;28;20050;-71
2021/04/09 01:30:11;;;;;;;27.57;8.10;;;;;;;15.65;56.29;100338.63;4989051;28;19922;-72
2021/04/09 01:32:38;;;;;;;22.03;5.87;;;;;;;15.55;56.33;100322.00;4952427;28;20048;-71
2021/04/09 01:35:25;;;;;;;26.33;8.83;;;;;;;15.46;56.74;100318.31;4989191;28;20046;-68
2021/04/09 01:38:00;;;;;;;15.60;5.57;;;;;;;15.49;56.58;100312.03;4987910;28;20050;-68
2021/04/09 01:40:39;;;;;;;18.90;5.43;;;;;;;15.46;56.72;100319.13;4990368;28;20533;-67
2021/04/09 01:43:07;;;;;;;13.77;4.40;;;;;;;15.27;56.77;100293.97;4983517;28;20049;-66
2021/04/09 01:45:35;;;;;;;26.83;8.33;;;;;;;15.25;57.24;100293.47;4982131;28;20042;-69
2021/04/09 01:48:04;;;;;;;14.87;5.77;;;;;;;15.23;57.62;100315.47;4988559;28;20042;-72
2021/04/09 01:50:32;;;;;;;16.65;5.32;;;;;;;15.16;57.81;100309.44;4986259;28;20049;-71
2021/04/09 01:53:01;;;;;;;10.73;4.57;;;;;;;15.06;58.11;100298.44;4989199;28;20042;-69
2021/04/09 01:55:31;;;;;;;22.03;6.93;;;;;;;14.99;58.14;100282.00;4988808;28;20051;-76
2021/04/09 01:57:59;;;;;;;37.97;8.73;;;;;;;15.07;58.20;100300.09;4985863;28;20874;-71
2021/04/09 02:00:27;;;;;;;18.83;7.00;;;;;;;15.04;58.40;100281.03;4990790;28;20049;-71
2021/04/09 02:02:54;;;;;;;17.70;6.50;;;;;;;15.04;58.47;100287.50;4987220;28;20054;-74
2021/04/09 02:05:22;;;;;;;16.20;6.17;;;;;;;15.06;58.33;100287.19;4988484;28;20042;-70
2021/04/09 02:07:52;;;;;;;19.83;6.10;;;;;;;15.00;58.44;100272.41;4991339;28;20053;-69
2021/04/09 02:10:20;;;;;;;16.93;6.33;;;;;;;15.03;58.58;100277.38;4989376;28;20786;-70
2021/04/09 02:12:48;;;;;;;25.73;7.57;;;;;;;15.03;58.89;100273.75;4989884;28;20482;-68
2021/04/09 02:15:17;;;;;;;15.13;5.53;;;;;;;15.01;58.94;100270.41;4988701;28;20046;-69
2021/04/09 02:17:44;;;;;;;21.13;6.28;;;;;;;14.95;59.13;100272.53;4984561;28;20054;-67
2021/04/09 02:20:13;;;;;;;20.83;7.50;;;;;;;14.82;59.38;100243.31;4984998;28;20535;-67
2021/04/09 02:22:41;;;;;;;14.43;5.45;;;;;;;14.89;59.53;100266.19;4983811;28;20058;-66
2021/04/09 02:25:08;;;;;;;13.43;4.93;;;;;;;14.85;59.71;100264.34;4988379;28;20043;-69
2021/04/09 02:27:36;;;;;;;18.43;6.43;;;;;;;14.79;59.76;100254.34;4984731;28;20043;-69
2021/04/09 02:30:09;;;;;;;13.87;5.47;;;;;;;14.78;59.71;100250.72;4984900;28;20705;-73
2021/04/09 02:32:36;;;;;;;20.50;7.77;;;;;;;14.80;59.99;100262.47;4991282;28;20498;-71
2021/04/09 02:35:05;;;;;;;21.07;6.90;;;;;;;14.84;59.92;100262.69;4986766;28;20046;-70
2021/04/09 02:37:32;;;;;;;26.13;8.33;;;;;;;14.82;59.75;100253.72;4990422;28;20138;-71
2021/04/09 02:40:04;;;;;;;19.20;7.23;;;;;;;14.88;59.66;100258.91;4990499;28;20043;-72
2021/04/09 02:42:31;;;;;;;22.77;9.67;;;;;;;14.89;59.54;100243.69;4990021;28;20077;-71
2021/04/09 02:44:57;;;;;;;19.60;9.60;;;;;;;14.93;59.39;100258.78;4982221;28;20046;-70
2021/04/09 02:47:26;;;;;;;21.00;8.07;;;;;;;14.98;59.42;100262.63;4987866;28;20053;-69
2021/04/09 02:50:12;;;;;;;27.03;7.53;;;;;;;14.96;59.50;100260.13;4989470;28;20046;-70
2021/04/09 02:52:45;;;;;;;21.83;6.23;;;;;;;14.91;59.39;100246.22;4985939;28;20483;-70
2021/04/09 02:55:15;;;;;;;20.47;5.63;;;;;;;14.99;59.38;100247.41;4984166;28;20065;-69
2021/04/09 02:57:43;;;;;;;22.85;7.38;;;;;;;15.01;59.23;100247.91;4987392;28;20043;-70
2021/04/09 03:00:11;;;;;;;24.70;6.50;;;;;;;14.96;59.03;100228.38;4982227;28;20057;-70
2021/04/09 03:02:39;;;;;;;17.73;6.37;;;;;;;15.08;59.05;100248.34;4984385;28;20051;-70
2021/04/09 03:05:09;;;;;;;16.07;7.07;;;;;;;15.11;59.08;100251.34;4986838;28;20047;-69
2021/04/09 03:07:38;;;;;;;21.73;8.73;;;;;;;15.08;58.97;100242.72;4985128;28;20046;-68
2021/04/09 03:10:10;;;;;;;23.67;6.95;;;;;;;15.14;58.77;100244.22;4989953;28;20128;-68
2021/04/09 03:12:37;;;;;;;24.60;6.43;;;;;;;15.23;58.53;100253.56;4987623;28;20395;-67
2021/04/09 03:15:06;;;;;;;26.83;7.10;;;;;;;15.21;58.63;100250.22;4992205;28;20383;-67
2021/04/09 03:17:47;;;;;;;27.33;7.40;;;;;;;15.19;58.61;100244.13;4987602;28;20057;-70
2021/04/09 03:20:15;;;;;;;26.17;6.73;;;;;;;15.10;58.50;100234.78;4990758;28;20053;-71
2021/04/09 03:22:41;;;;;;;20.83;7.20;;;;;;;15.22;58.48;100251.91;4994963;28;20042;-72
2021/04/09 03:25:08;;;;;;;25.80;6.50;;;;;;;15.22;58.44;100251.91;4993715;28;20046;-71
2021/04/09 03:27:35;;;;;;;18.37;6.77;;;;;;;15.21;58.11;100252.22;4987424;28;20052;-72
2021/04/09 03:30:03;;;;;;;22.40;6.70;;;;;;;15.06;58.46;100228.13;4992741;28;20399;-72
2021/04/09 03:32:29;;;;;;;17.97;5.60;;;;;;;15.14;58.40;100238.59;4989665;28;20068;-71
2021/04/09 03:34:56;;;;;;;14.57;6.70;;;;;;;15.09;58.58;100236.75;4993366;28;20050;-73
2021/04/09 03:37:22;;;;;;;13.10;6.13;;;;;;;15.19;58.25;100249.75;4992579;28;20046;-72
2021/04/09 03:39:49;;;;;;;19.40;6.87;;;;;;;15.24;58.14;100237.53;4993125;28;20042;-72
2021/04/09 03:42:15;;;;;;;22.80;7.47;;;;;;;15.35;57.87;100236.97;4991407;28;20046;-70
2021/04/09 03:44:44;;;;;;;15.27;6.50;;;;;;;15.41;57.59;100220.75;4992703;28;20050;-70
2021/04/09 03:47:16;;;;;;;23.23;6.97;;;;;;;15.53;57.55;100223.81;4987961;28;20499;-72
2021/04/09 03:49:42;;;;;;;19.47;6.00;;;;;;;15.64;57.06;100230.00;4992999;28;20046;-72
2021/04/09 03:52:08;;;;;;;21.13;6.80;;;;;;;15.76;56.89;100233.09;4986774;28;20042;-72
2021/04/09 03:54:34;;;;;;;20.27;6.10;;;;;;;15.68;57.12;100233.03;4990104;28;20054;-72
2021/04/09 03:57:01;;;;;;;14.33;5.33;;;;;;;15.64;56.76;100213.13;4992887;28;20042;-73
2021/04/09 03:59:28;;;;;;;21.97;6.37;;;;;;;15.82;56.71;100239.41;4988847;28;20502;-72
2021/04/09 04:01:54;;;;;;;20.43;6.30;;;;;;;15.84;56.64;100231.47;4991381;28;20049;-71
2021/04/09 04:04:21;;;;;;;28.17;6.90;;;;;;;15.76;56.82;100232.25;4988034;28;20054;-71
2021/04/09 04:06:47;;;;;;;16.37;5.70;;;;;;;15.61;56.99;100219.41;4991966;28;20129;-72
2021/04/09 04:09:13;;;;;;;21.20;6.13;;;;;;;15.57;57.10;100229.63;4982569;28;20550;-71
2021/04/09 04:11:40;;;;;;;14.80;7.33;;;;;;;15.52;57.24;100227.81;4987753;28;20050;-70
2021/04/09 04:14:06;;;;;;;28.00;6.13;;;;;;;15.44;57.57;100222.09;4990589;28;20133;-72
2021/04/09 04:16:32;;;;;;;22.60;5.97;;;;;;;15.36;57.42;100230.16;4984353;28;20133;-72
2021/04/09 04:18:59;;;;;;;19.87;6.40;;;;;;;15.27;57.56;100225.63;4991673;28;20039;-69
2021/04/09 04:21:25;;;;;;;21.53;6.63;;;;;;;15.11;57.86;100209.16;4989799;28;20074;-75
2021/04/09 04:23:51;;;;;;;28.03;7.17;;;;;;;15.15;58.07;100220.59;4992247;28;20494;-71
2021/04/09 04:26:18;;;;;;;21.63;6.73;;;;;;;15.02;58.19;100213.88;4982727;28;20056;-73
2021/04/09 04:28:45;;;;;;;18.83;7.30;;;;;;;14.99;58.22;100206.06;4992208;28;20074;-69
2021/04/09 04:31:11;;;;;;;20.23;6.90;;;;;;;14.98;58.34;100210.03;4970359;28;20051;-69
2021/04/09 04:33:38;;;;;;;12.40;6.43;;;;;;;14.99;58.51;100208.88;4989978;28;20050;-70
2021/04/09 04:36:05;;;;;;;13.63;5.97;;;;;;;14.95;58.74;100207.03;4992894;28;20068;-73
2021/04/09 04:38:31;;;;;;;18.77;5.70;;;;;;;14.83;58.89;100210.41;4986618;28;20403;-79
2021/04/09 04:40:58;;;;;;;17.20;5.23;;;;;;;14.69;59.23;100188.78;4988859;28;20407;-77
2021/04/09 04:43:30;;;;;;;24.03;7.30;;;;;;;14.82;59.32;100214.34;4990862;28;20042;-73
2021/04/09 04:45:56;;;;;;;15.33;6.27;;;;;;;14.62;59.51;100187.56;4983983;28;20042;-73
2021/04/09 04:48:23;;;;;;;22.93;6.53;;;;;;;14.72;59.83;100215.44;4991539;28;20514;-77
2021/04/09 04:50:53;;;;;;;15.77;5.57;;;;;;;14.74;59.66;100217.94;4990450;28;20133;-74
2021/04/09 04:53:19;;;;;;;19.25;6.40;;;;;;;14.74;59.70;100213.16;4991877;28;20647;-75
2021/04/09 04:55:46;;;;;;;25.33;7.77;;;;;;;14.70;59.81;100198.06;4992487;28;20483;-76
2021/04/09 04:58:12;;;;;;;22.67;6.57;;;;;;;14.75;59.46;100200.75;4991188;28;20048;-78
2021/04/09 05:00:38;;;;;;;18.90;6.00;;;;;;;14.79;59.38;100201.75;4986119;28;20419;-77
2021/04/09 05:03:05;;;;;;;18.23;6.63;;;;;;;14.80;59.31;100188.53;4980695;28;20050;-72
2021/04/09 05:05:31;;;;;;;27.27;6.97;;;;;;;14.88;59.43;100196.22;4990136;28;20043;-72
2021/04/09 05:07:58;;;;;;;20.77;6.30;;;;;;;14.81;59.40;100187.41;4991403;28;20081;-73
2021/04/09 05:10:25;;;;;;;25.47;6.53;;;;;;;14.98;59.11;100195.16;4988492;28;20046;-74
2021/04/09 05:12:51;;;;;;;21.30;6.60;;;;;;;15.00;59.06;100192.84;4986651;28;20058;-73
2021/04/09 05:15:25;;;;;;;19.37;6.20;;;;;;;14.69;59.11;100146.63;4989810;28;20054;-73
2021/04/09 05:17:51;;;;;;;18.30;5.87;;;;;;;14.99;59.04;100197.63;4988635;28;20483;-71
2021/04/09 05:20:17;;;;;;;24.50;7.07;;;;;;;15.07;59.00;100216.53;4984223;28;20050;-69
2021/04/09 05:22:44;;;;;;;21.47;7.07;;;;;;;15.05;59.02;100206.78;4987612;28;20546;-69
2021/04/09 05:25:11;;;;;;;24.70;5.97;;;;;;;15.03;59.02;100209.91;4988012;28;20137;-70
2021/04/09 05:27:37;;;;;;;18.33;7.00;;;;;;;15.12;58.87;100208.00;4990775;28;20046;-70
2021/04/09 05:30:05;;;;;;;17.00;6.83;;;;;;;15.25;58.64;100211.06;4990146;28;20048;-69
2021/04/09 05:32:31;;;;;;;18.90;7.90;;;;;;;15.20;58.52;100208.38;4987433;28;20128;-71
2021/04/09 05:34:58;;;;;;;21.50;7.27;;;;;;;15.27;58.69;100218.03;4984551;28;20053;-65
2021/04/09 05:37:24;;;;;;;19.30;6.50;;;;;;;15.14;58.89;100205.72;4989084;28;20096;-65
2021/04/09 05:39:53;;;;;;;17.13;6.03;;;;;;;15.28;58.82;100225.34;4990501;28;20046;-71
2021/04/09 05:42:19;;;;;;;20.03;7.37;;;;;;;15.30;58.84;100225.00;4984053;28;20423;-71
2021/04/09 05:44:47;;;;;;;17.23;7.53;;;;;;;15.28;58.66;100210.41;4986625;28;20053;-78
2021/04/09 05:47:13;;;;;;;18.83;7.63;;;;;;;15.34;58.58;100209.94;4981838;28;20059;-66
2021/04/09 05:49:40;;;;;;;17.30;6.10;;;;;;;15.44;58.50;100224.91;4986479;28;20046;-66
2021/04/09 05:52:07;;;;;;;20.83;6.43;;;;;;;15.34;58.51;100195.88;4985203;28;20050;-65
2021/04/09 05:54:34;;;;;;;16.93;6.77;;;;;;;15.37;58.83;100217.75;4985389;28;20057;-66
2021/04/09 05:57:01;;;;;;;16.23;5.23;;;;;;;15.30;58.58;100203.31;4986622;28;20407;-70
2021/04/09 05:59:27;;;;;;;16.20;5.97;;;;;;;15.25;58.81;100209.09;4984647;28;20054;-70
2021/04/09 06:01:54;;;;;;;25.80;7.87;;;;;;;15.04;59.28;100196.66;4983415;28;20112;-71
2021/04/09 06:04:22;;;;;;;22.73;5.77;;;;;;;14.85;59.58;100194.88;4987173;28;20430;-69
2021/04/09 06:06:49;;;;;;;24.00;6.83;;;;;;;14.83;59.62;100199.16;4987674;28;20074;-65
2021/04/09 06:09:15;;;;;;;11.37;5.83;;;;;;;14.85;59.64;100208.94;4984447;28;20133;-68
2021/04/09 06:11:42;;;;;;;19.47;7.30;;;;;;;14.92;59.68;100220.56;4984234;28;20039;-65
2021/04/09 06:14:08;;;;;;;22.40;8.20;;;;;;;14.91;59.60;100212.47;4987321;28;20459;-66
2021/04/09 06:16:37;;;;;;;26.93;8.00;;;;;;;14.86;59.58;100216.22;4987127;28;20054;-64
2021/04/09 06:19:06;;;;;;;20.10;5.87;;;;;;;14.86;59.69;100216.22;4987742;28;20049;-65
2021/04/09 06:21:33;;;;;;;15.57;7.05;;;;;;;14.73;60.31;100227.50;4985702;28;20304;-65
2021/04/09 06:23:59;;;;;;;23.03;8.40;;;;;;;14.69;60.51;100233.75;4981854;28;20042;-64
2021/04/09 06:26:26;;;;;;;14.33;6.23;;;;;;;14.58;60.59;100223.88;4977017;28;20050;-63
2021/04/09 06:29:12;;;;;;;17.57;6.47;;;;;;;14.58;60.85;100226.69;4984797;28;20545;-64
2021/04/09 06:31:38;;;;;;;16.57;7.00;;;;;;;14.65;60.48;100226.28;4986013;28;20042;-63
2021/04/09 06:34:04;;;;;;;18.57;7.30;;;;;;;14.75;60.39;100225.22;4985426;28;20050;-64
2021/04/09 06:36:31;;;;;;;28.23;8.43;;;;;;;14.78;60.30;100224.59;4985947;28;20046;-63
2021/04/09 06:38:58;;;;;;;29.90;6.47;;;;;;;14.84;60.39;100224.16;4984348;28;20053;-64
2021/04/09 06:41:25;;;;;;;22.20;7.43;;;;;;;14.97;60.14;100224.41;4985239;28;20061;-64
2021/04/09 06:43:52;;;;;;;17.00;6.13;;;;;;;14.90;60.37;100234.09;4984557;28;20054;-63
2021/04/09 06:46:19;;;;;;;20.67;7.33;;;;;;;14.93;60.56;100241.06;4985094;28;20092;-63
2021/04/09 06:48:45;;;;;;;20.43;7.53;;;;;;;14.89;60.47;100223.19;4984069;28;20483;-63
2021/04/09 06:51:15;;;;;;;15.73;6.43;;;;;;;15.06;60.39;100239.38;4985241;28;20051;-64
2021/04/09 06:53:48;;;;;;;18.42;6.78;;;;;;;15.11;60.35;100231.66;4986583;28;20124;-64
2021/04/09 06:56:16;;;;;;;21.63;6.97;;;;;;;15.23;60.08;100239.50;4986669;28;20598;-65
2021/04/09 06:58:46;;;;;;;23.77;8.47;;;;;;;15.28;60.11;100227.28;4989457;28;20042;-63
2021/04/09 07:01:13;;;;;;;27.35;6.95;;;;;;;15.36;59.85;100224.53;4987041;28;20756;-65
2021/04/09 07:03:39;;;;;;;20.43;8.20;;;;;;;15.55;59.60;100248.81;4986832;28;20388;-63
2021/04/09 07:06:06;;;;;;;24.77;7.83;;;;;;;15.58;59.41;100237.75;4983410;28;20053;-63
2021/04/09 07:08:42;;;;;;;25.03;8.00;;;;;;;15.66;59.36;100244.63;4989428;28;20050;-63
2021/04/09 07:11:09;;;;;;;20.43;7.33;;;;;;;15.62;59.47;100243.56;4991204;28;20053;-63
2021/04/09 07:13:53;;;;;;;14.67;5.00;;;;;;;15.50;59.59;100243.34;4988544;28;20046;-64
2021/04/09 07:16:20;;;;;;;13.33;6.33;;;;;;;15.45;59.80;100249.91;4985370;28;20583;-63
2021/04/09 07:18:53;;;;;;;14.07;5.43;;;;;;;15.39;59.75;100243.59;4986254;28;20061;-65
2021/04/09 07:21:22;;;;;;;15.53;5.67;;;;;;;15.36;59.77;100249.88;4968328;28;20363;-64
2021/04/09 07:24:17;;;;;;;13.65;5.88;;;;;;;15.25;59.90;100225.97;4991797;28;20054;-64
2021/04/09 07:26:51;;;;;;;15.43;4.63;;;;;;;15.47;59.72;100243.97;4987765;28;20042;-64
2021/04/09 07:29:30;;;;;;;21.00;6.07;;;;;;;15.44;59.97;100245.44;4983036;28;20539;-64
2021/04/09 07:32:23;;;;;;;17.63;7.47;;;;;;;15.55;59.83;100243.19;4989633;28;20062;-67
2021/04/09 07:34:55;;;;;;;13.37;5.37;;;;;;;15.56;59.93;100245.69;4987139;28;20050;-62
2021/04/09 07:37:23;;;;;;;20.93;5.40;;;;;;;15.54;60.09;100250.81;4985456;28;20042;-63
2021/04/09 07:40:03;;;;;;;12.03;5.63;;;;;;;15.51;60.26;100250.63;4987905;28;20057;-62
2021/04/09 07:42:35;;;;;;;23.90;6.23;;;;;;;15.57;60.01;100238.09;4987712;28;20053;-64
2021/04/09 07:45:12;;;;;;;21.93;8.37;;;;;;;15.64;59.79;100241.28;4990223;28;20050;-64
2021/04/09 07:47:51;;;;;;;24.33;8.07;;;;;;;15.83;59.63;100252.34;4985698;28;20046;-65
2021/04/09 07:50:18;;;;;;;18.17;7.17;;;;;;;15.70;59.81;100240.03;4986034;28;20133;-65
2021/04/09 07:52:48;;;;;;;21.90;7.47;;;;;;;15.86;59.71;100258.16;4986937;28;20296;-65
2021/04/09 07:55:19;;;;;;;18.57;8.03;;;;;;;15.87;59.63;100251.38;4982720;28;20065;-64
2021/04/09 07:57:45;;;;;;;22.80;7.70;;;;;;;15.86;59.53;100255.34;4989106;28;20050;-65
2021/04/09 08:00:26;;;;;;;20.00;7.47;;;;;;;15.81;59.62;100249.00;4987236;28;20376;-65
2021/04/09 08:02:55;;;;;;;17.73;5.80;;;;;;;15.72;59.67;100248.13;4984837;28;20806;-64
2021/04/09 08:05:26;;;;;;;18.60;7.00;;;;;;;15.66;60.05;100250.28;4988761;28;20132;-64
2021/04/09 08:07:53;;;;;;;10.07;4.90;;;;;;;15.65;59.98;100248.56;4985664;28;20410;-65
2021/04/09 08:10:30;;;;;;;12.70;5.50;;;;;;;15.61;59.88;100233.47;4983547;28;20137;-65
2021/04/09 08:13:04;;;;;;;14.13;6.17;;;;;;;15.67;60.00;100251.09;4988309;28;20415;-66
2021/04/09 08:15:34;;;;;;;23.03;8.03;;;;;;;15.50;60.51;100244.16;4986881;28;20057;-65
2021/04/09 08:18:03;;;;;;;14.53;5.63;;;;;;;15.65;60.51;100260.63;4991061;28;20050;-64
2021/04/09 08:20:40;;;;;;;19.73;4.97;;;;;;;15.62;60.64;100244.41;4988078;28;20050;-64
2021/04/09 08:23:11;;;;;;;23.37;7.70;;;;;;;15.83;60.01;100258.81;4989112;28;20440;-65
2021/04/09 08:25:39;;;;;;;26.20;8.33;;;;;;;15.94;60.00;100261.34;4985622;28;20483;-63
2021/04/09 08:28:08;;;;;;;20.53;5.87;;;;;;;15.93;60.08;100260.53;4986465;28;20045;-64
2021/04/09 08:30:38;;;;;;;22.73;8.70;;;;;;;15.85;60.12;100250.84;4987208;28;20102;-64
2021/04/09 08:33:06;;;;;;;19.73;6.38;;;;;;;15.87;60.05;100257.00;4988604;28;20053;-62
2021/04/09 08:35:33;;;;;;;16.83;5.43;;;;;;;16.02;59.84;100269.00;4983341;28;20411;-63
2021/04/09 08:38:02;;;;;;;25.90;8.10;;;;;;;16.02;59.97;100269.81;4984925;28;20050;-63
2021/04/09 08:40:29;;;;;;;22.95;10.10;;;;;;;16.21;59.67;100269.59;4983124;28;20993;-65
2021/04/09 08:42:58;;;;;;;28.03;8.57;;;;;;;16.06;59.62;100258.72;4983693;28;20600;-65
2021/04/09 08:45:34;;;;;;;24.17;7.00;;;;;;;16.35;59.31;100267.47;4981289;28;20138;-64
2021/04/09 08:48:01;;;;;;;22.10;8.18;;;;;;;16.46;59.13;100270.81;4987782;28;20046;-66
2021/04/09 08:50:27;;;;;;;30.87;9.47;;;;;;;16.47;59.01;100260.38;4985577;28;20053;-64
2021/04/09 08:52:53;;;;;;;21.77;6.87;;;;;;;16.62;58.96;100264.75;4986549;28;20046;-65
2021/04/09 08:55:36;;;;;;;22.73;7.40;;;;;;;16.69;58.72;100270.72;4985919;28;20109;-66
2021/04/09 08:58:17;;;;;;;18.37;6.87;;;;;;;16.51;58.80;100259.41;4985609;28;20082;-65
2021/04/09 09:00:44;;;;;;;26.70;8.37;;;;;;;16.51;59.15;100269.84;4986030;28;20704;-66
2021/04/09 09:03:28;;;;;;;16.83;8.20;;;;;;;16.72;58.49;100273.72;4990323;28;20061;-64
2021/04/09 09:06:07;;;;;;;12.20;5.00;;;;;;;16.60;58.86;100279.16;4983650;28;20042;-66
2021/04/09 09:08:43;;;;;;;13.07;3.67;;;;;;;16.67;58.40;100276.69;4987683;28;20042;-65
2021/04/09 09:11:13;;;;;;;19.33;7.80;;;;;;;16.69;58.67;100271.56;4984237;28;20109;-66
2021/04/09 09:13:47;;;;;;;14.27;6.90;;;;;;;16.81;58.13;100259.66;4988517;28;20060;-65
2021/04/09 09:16:20;;;;;;;12.80;4.90;;;;;;;16.84;57.72;100238.44;4980700;28;20050;-65
2021/04/09 09:18:49;;;;;;;15.73;5.47;;;;;;;17.29;57.36;100282.06;4986841;28;20046;-66
2021/04/09 09:21:21;;;;;;;26.38;8.45;;;;;;;17.82;56.37;100285.72;4985339;28;20104;-65
2021/04/09 09:24:18;;;;;;;26.13;7.97;;;;;;;18.70;55.04;100285.03;4983073;28;20503;-66
2021/04/09 09:26:47;;;;;;;11.17;4.93;;;;;;;18.46;53.85;100276.31;4982623;28;20455;-66
2021/04/09 09:29:16;;;;;;;13.10;5.22;;;;;;;18.12;54.11;100278.16;4985597;28;20074;-65
2021/04/09 09:31:43;;;;;;;14.43;4.32;;;;;;;17.79;55.16;100277.91;4962591;28;20042;-66
2021/04/09 09:34:19;;;;;;;8.30;4.38;;;;;;;17.62;55.79;100275.91;4985573;28;20050;-66
2021/04/09 09:37:02;;;;;;;16.65;5.78;;;;;;;17.74;55.90;100284.53;4988818;28;20403;-64
2021/04/09 09:39:41;;;;;;;13.30;4.25;;;;;;;17.67;55.95;100272.91;4988657;28;20052;-65
2021/04/09 09:42:13;;;;;;;11.45;3.30;;;;;;;17.62;56.37;100281.56;4988138;28;20181;-64
2021/04/09 09:44:39;;;;;;;7.63;4.18;;;;;;;17.46;57.11;100289.72;4986440;28;20126;-66
2021/04/09 09:47:16;;;;;;;11.50;3.97;;;;;;;17.44;57.40;100280.75;4985679;28;20514;-67
2021/04/09 09:50:04;;;;;;;7.63;2.95;;;;;;;17.40;57.55;100279.78;4982066;28;20124;-65
2021/04/09 09:53:03;;;;;;;13.30;4.82;;;;;;;18.11;56.58;100276.47;4986874;28;20047;-66
2021/04/09 09:55:34;;;;;;;6.22;2.60;;;;;;;18.68;55.89;100278.88;4983794;28;20050;-66
2021/04/09 09:58:00;;;;;;;9.05;4.03;;;;;;;19.10;54.48;100284.59;4985092;28;20046;-67
2021/04/09 10:00:38;;;;;;;4.43;2.78;;;;;;;19.83;53.67;100272.00;4984890;28;20038;-65
2021/04/09 10:03:25;;;;;;;15.05;6.05;;;;;;;20.53;52.35;100272.81;4987052;28;20046;-65
2021/04/09 10:05:54;;;;;;;16.65;5.88;;;;;;;21.24;50.94;100279.09;4985690;28;20574;-64
2021/04/09 10:08:22;;;;;;;16.30;7.88;;;;;;;21.39;49.91;100284.03;4986351;28;20156;-64
2021/04/09 10:10:50;;;;;;;6.95;4.18;;;;;;;20.90;50.01;100289.00;4981110;28;20061;-67
2021/04/09 10:13:21;;;;;;;20.23;9.57;;;;;;;20.64;50.41;100293.00;4979289;28;20141;-63
2021/04/09 10:15:52;;;;;;;18.08;7.45;;;;;;;20.38;50.90;100287.69;4985740;28;20475;-66
2021/04/09 10:18:21;;;;;;;29.85;10.13;;;;;;;19.89;51.86;100285.56;4980125;28;20046;-65
2021/04/09 10:20:51;;;;;;;12.65;7.35;;;;;;;19.82;52.01;100290.97;4986966;28;20128;-65
2021/04/09 10:23:24;;;;;;;19.98;9.43;;;;;;;19.41;52.84;100272.00;4987370;28;20061;-66
2021/04/09 10:25:54;;;;;;;15.45;6.95;;;;;;;19.03;53.51;100236.22;4991103;28;20054;-67
2021/04/09 10:28:21;;;;;;;15.70;8.05;;;;;;;19.20;53.52;100274.03;4989069;28;20141;-65
2021/04/09 10:30:52;;;;;;;19.92;7.57;;;;;;;19.25;53.51;100277.50;4986197;28;20510;-69
2021/04/09 10:33:35;;;;;;;12.43;5.13;;;;;;;19.25;53.90;100269.00;4989541;28;20045;-71
2021/04/09 10:36:21;;;;;;;15.50;7.00;;;;;;;19.57;53.92;100284.38;4987554;28;20084;-68
2021/04/09 10:38:54;;;;;;;11.25;5.47;;;;;;;20.02;53.70;100262.94;4988580;28;20046;-68
2021/04/09 10:41:27;;;;;;;7.93;4.00;;;;;;;20.55;52.53;100253.44;4990628;28;20054;-69
2021/04/09 10:43:59;;;;;;;10.75;5.07;;;;;;;21.01;51.91;100268.25;4988276;28;20057;-68
2021/04/09 10:46:27;;;;;;;9.68;4.03;;;;;;;20.91;51.76;100271.59;4991679;28;20046;-68
2021/04/09 10:49:07;;;;;;;12.60;4.72;;;;;;;20.62;52.03;100263.38;4985957;28;20130;-70
2021/04/09 10:51:36;;;;;;;13.20;5.18;;;;;;;20.59;52.34;100260.03;4987759;28;20062;-69
2021/04/09 10:54:13;;;;;;;15.23;6.25;;;;;;;20.72;52.29;100275.06;4984491;28;20056;-69
2021/04/09 10:56:41;;;;;;;14.02;4.70;;;;;;;20.70;52.06;100265.25;4987552;28;20073;-70
2021/04/09 10:59:10;;;;;;;19.17;5.78;;;;;;;20.70;52.13;100270.91;4988459;28;22593;-70
2021/04/09 11:01:40;;;;;;;17.05;6.20;;;;;;;20.16;52.40;100195.38;4988679;28;20046;-65
2021/04/09 11:04:08;;;;;;;14.32;5.47;;;;;;;20.54;52.18;100245.25;4989004;28;20073;-67
2021/04/09 11:06:48;;;;;;;15.98;6.18;;;;;;;20.43;52.28;100242.03;4988160;28;20048;-67
2021/04/09 11:09:14;;;;;;;18.52;5.70;;;;;;;20.35;52.49;100248.69;4990305;28;20050;-66
2021/04/09 11:11:44;;;;;;;13.45;6.55;;;;;;;21.22;52.14;100248.22;4985505;28;20143;-68
2021/04/09 11:14:16;;;;;;;17.58;5.03;;;;;;;21.66;51.37;100247.47;4987162;28;20061;-66
2021/04/09 11:16:51;;;;;;;14.23;5.70;;;;;;;21.64;51.11;100249.84;4987564;28;20132;-66
2021/04/09 11:19:37;;;;;;;11.60;4.68;;;;;;;21.39;50.90;100241.44;4987337;28;20492;-67
2021/04/09 11:22:08;;;;;;;16.00;5.43;;;;;;;21.22;51.04;100225.47;4984727;28;20046;-67
2021/04/09 11:24:38;;;;;;;9.77;3.72;;;;;;;21.40;50.90;100228.91;4989732;28;20042;-67
2021/04/09 11:27:22;;;;;;;15.60;4.45;;;;;;;21.75;50.47;100222.56;4986331;28;20069;-66
2021/04/09 11:29:50;;;;;;;11.48;3.58;;;;;;;22.00;49.84;100212.66;4988312;28;20046;-65
2021/04/09 11:32:19;;;;;;;10.45;3.22;;;;;;;22.17;49.28;100222.88;4991240;28;20050;-67